sensor_id;sensor_type;location;lat;lon;timestamp;P1;durP1;ratioP1;P2;durP2;ratioP2
25950;SDS011;13748;52.240;6.002;2023-05-10T00:02:00;15.93;;;8.07;;
25950;SDS011;13748;52.240;6.002;2023-05-10T00:04:28;17.90;;;8.80;;
25950;SDS011;13748;52.240;6.002;2023-05-10T00:06:54;18.67;;;9.13;;
25950;SDS011;13748;52.240;6.002;2023-05-10T00:09:21;20.37;;;9.03;;
25950;SDS011;13748;52.240;6.002;2023-05-10T00:11:48;20.70;;;9.27;;
25950;SDS011;13748;52.240;6.002;2023-05-10T00:14:15;19.07;;;8.87;;
25950;SDS011;13748;52.240;6.002;2023-05-10T00:16:41;19.57;;;9.10;;
25950;SDS011;13748;52.240;6.002;2023-05-10T00:19:08;22.77;;;8.90;;
25950;SDS011;13748;52.240;6.002;2023-05-10T00:21:35;19.40;;;9.60;;
25950;SDS011;13748;52.240;6.002;2023-05-10T00:24:02;21.47;;;10.10;;
25950;SDS011;13748;52.240;6.002;2023-05-10T00:26:29;22.10;;;9.63;;
25950;SDS011;13748;52.240;6.002;2023-05-10T00:28:58;25.73;;;10.43;;
25950;SDS011;13748;52.240;6.002;2023-05-10T00:31:24;28.57;;;11.50;;
25950;SDS011;13748;52.240;6.002;2023-05-10T00:33:51;21.53;;;9.63;;
25950;SDS011;13748;52.240;6.002;2023-05-10T00:36:18;21.47;;;10.20;;
25950;SDS011;13748;52.240;6.002;2023-05-10T00:38:45;26.87;;;11.60;;
25950;SDS011;13748;52.240;6.002;2023-05-10T00:41:12;27.30;;;11.03;;
25950;SDS011;13748;52.240;6.002;2023-05-10T00:43:39;26.77;;;11.00;;
25950;SDS011;13748;52.240;6.002;2023-05-10T00:46:05;22.57;;;10.93;;
25950;SDS011;13748;52.240;6.002;2023-05-10T00:48:33;30.70;;;11.60;;
25950;SDS011;13748;52.240;6.002;2023-05-10T00:51:01;30.60;;;12.00;;
25950;SDS011;13748;52.240;6.002;2023-05-10T00:53:31;26.20;;;11.83;;
25950;SDS011;13748;52.240;6.002;2023-05-10T00:55:59;30.33;;;12.13;;
25950;SDS011;13748;52.240;6.002;2023-05-10T00:58:26;36.07;;;13.80;;
25950;SDS011;13748;52.240;6.002;2023-05-10T01:00:57;35.67;;;13.00;;
25950;SDS011;13748;52.240;6.002;2023-05-10T01:03:24;38.60;;;14.43;;
25950;SDS011;13748;52.240;6.002;2023-05-10T01:05:51;40.57;;;14.57;;
25950;SDS011;13748;52.240;6.002;2023-05-10T01:08:18;40.53;;;13.57;;
25950;SDS011;13748;52.240;6.002;2023-05-10T01:10:45;41.40;;;14.53;;
25950;SDS011;13748;52.240;6.002;2023-05-10T01:13:18;40.90;;;15.10;;
25950;SDS011;13748;52.240;6.002;2023-05-10T01:15:59;48.20;;;14.83;;
25950;SDS011;13748;52.240;6.002;2023-05-10T01:18:29;43.80;;;15.27;;
25950;SDS011;13748;52.240;6.002;2023-05-10T01:24:16;41.43;;;14.50;;
25950;SDS011;13748;52.240;6.002;2023-05-10T01:30:22;52.40;;;16.20;;
25950;SDS011;13748;52.240;6.002;2023-05-10T01:33:10;56.13;;;17.47;;
25950;SDS011;13748;52.240;6.002;2023-05-10T01:38:31;54.07;;;17.80;;
25950;SDS011;13748;52.240;6.002;2023-05-10T01:41:13;59.07;;;18.77;;
25950;SDS011;13748;52.240;6.002;2023-05-10T01:44:08;59.37;;;18.57;;
25950;SDS011;13748;52.240;6.002;2023-05-10T01:46:42;60.97;;;18.50;;
25950;SDS011;13748;52.240;6.002;2023-05-10T01:49:11;63.27;;;19.10;;
25950;SDS011;13748;52.240;6.002;2023-05-10T01:51:59;68.63;;;20.40;;
25950;SDS011;13748;52.240;6.002;2023-05-10T01:54:32;63.93;;;19.13;;
25950;SDS011;13748;52.240;6.002;2023-05-10T01:57:01;66.57;;;20.27;;
25950;SDS011;13748;52.240;6.002;2023-05-10T01:59:34;69.73;;;20.07;;
25950;SDS011;13748;52.240;6.002;2023-05-10T02:02:03;71.13;;;19.50;;
25950;SDS011;13748;52.240;6.002;2023-05-10T02:04:31;64.07;;;20.03;;
25950;SDS011;13748;52.240;6.002;2023-05-10T02:07:01;76.17;;;21.17;;
25950;SDS011;13748;52.240;6.002;2023-05-10T02:09:28;72.53;;;22.23;;
25950;SDS011;13748;52.240;6.002;2023-05-10T02:11:57;77.60;;;23.37;;
25950;SDS011;13748;52.240;6.002;2023-05-10T02:14:29;80.73;;;22.73;;
25950;SDS011;13748;52.240;6.002;2023-05-10T02:16:58;73.23;;;20.70;;
25950;SDS011;13748;52.240;6.002;2023-05-10T02:19:28;70.10;;;22.03;;
25950;SDS011;13748;52.240;6.002;2023-05-10T02:21:56;77.87;;;22.83;;
25950;SDS011;13748;52.240;6.002;2023-05-10T02:24:24;76.57;;;23.13;;
25950;SDS011;13748;52.240;6.002;2023-05-10T02:26:53;77.07;;;23.43;;
25950;SDS011;13748;52.240;6.002;2023-05-10T02:29:22;78.77;;;21.87;;
25950;SDS011;13748;52.240;6.002;2023-05-10T02:31:51;83.67;;;22.63;;
25950;SDS011;13748;52.240;6.002;2023-05-10T02:34:23;83.57;;;24.30;;
25950;SDS011;13748;52.240;6.002;2023-05-10T02:36:52;87.87;;;22.47;;
25950;SDS011;13748;52.240;6.002;2023-05-10T02:39:21;88.77;;;23.67;;
25950;SDS011;13748;52.240;6.002;2023-05-10T02:41:49;93.47;;;23.37;;
25950;SDS011;13748;52.240;6.002;2023-05-10T02:44:17;91.57;;;23.63;;
25950;SDS011;13748;52.240;6.002;2023-05-10T02:46:45;96.77;;;24.27;;
25950;SDS011;13748;52.240;6.002;2023-05-10T02:49:14;94.50;;;24.83;;
25950;SDS011;13748;52.240;6.002;2023-05-10T02:51:42;102.87;;;26.50;;
25950;SDS011;13748;52.240;6.002;2023-05-10T02:54:20;97.97;;;24.57;;
25950;SDS011;13748;52.240;6.002;2023-05-10T02:56:54;111.03;;;25.57;;
25950;SDS011;13748;52.240;6.002;2023-05-10T02:59:23;88.37;;;23.87;;
25950;SDS011;13748;52.240;6.002;2023-05-10T03:01:50;103.80;;;26.60;;
25950;SDS011;13748;52.240;6.002;2023-05-10T03:04:17;108.17;;;27.97;;
25950;SDS011;13748;52.240;6.002;2023-05-10T03:06:44;113.50;;;27.03;;
25950;SDS011;13748;52.240;6.002;2023-05-10T03:09:11;112.10;;;27.67;;
25950;SDS011;13748;52.240;6.002;2023-05-10T03:17:01;124.07;;;27.90;;
25950;SDS011;13748;52.240;6.002;2023-05-10T03:22:23;125.63;;;28.40;;
25950;SDS011;13748;52.240;6.002;2023-05-10T03:24:57;125.67;;;31.00;;
25950;SDS011;13748;52.240;6.002;2023-05-10T03:27:26;125.63;;;28.63;;
25950;SDS011;13748;52.240;6.002;2023-05-10T03:29:54;110.93;;;28.20;;
25950;SDS011;13748;52.240;6.002;2023-05-10T03:32:22;108.17;;;26.70;;
25950;SDS011;13748;52.240;6.002;2023-05-10T03:34:49;120.33;;;28.33;;
25950;SDS011;13748;52.240;6.002;2023-05-10T03:37:16;120.37;;;29.80;;
25950;SDS011;13748;52.240;6.002;2023-05-10T03:39:43;117.43;;;29.73;;
25950;SDS011;13748;52.240;6.002;2023-05-10T03:42:11;113.00;;;29.23;;
25950;SDS011;13748;52.240;6.002;2023-05-10T03:44:39;123.10;;;29.20;;
25950;SDS011;13748;52.240;6.002;2023-05-10T03:47:06;107.77;;;27.73;;
25950;SDS011;13748;52.240;6.002;2023-05-10T03:49:33;108.47;;;26.27;;
25950;SDS011;13748;52.240;6.002;2023-05-10T03:51:59;111.43;;;28.20;;
25950;SDS011;13748;52.240;6.002;2023-05-10T03:54:26;102.00;;;28.27;;
25950;SDS011;13748;52.240;6.002;2023-05-10T03:56:53;109.83;;;29.23;;
25950;SDS011;13748;52.240;6.002;2023-05-10T03:59:20;123.97;;;31.60;;
25950;SDS011;13748;52.240;6.002;2023-05-10T04:01:47;105.97;;;28.37;;
25950;SDS011;13748;52.240;6.002;2023-05-10T04:04:13;114.60;;;30.20;;
25950;SDS011;13748;52.240;6.002;2023-05-10T04:06:40;113.70;;;28.90;;
25950;SDS011;13748;52.240;6.002;2023-05-10T04:09:07;111.60;;;27.93;;
25950;SDS011;13748;52.240;6.002;2023-05-10T04:11:35;92.03;;;26.07;;
25950;SDS011;13748;52.240;6.002;2023-05-10T04:14:02;94.03;;;26.83;;
25950;SDS011;13748;52.240;6.002;2023-05-10T04:16:28;98.27;;;27.60;;
25950;SDS011;13748;52.240;6.002;2023-05-10T04:18:55;96.97;;;26.00;;
25950;SDS011;13748;52.240;6.002;2023-05-10T04:21:22;88.30;;;26.83;;
25950;SDS011;13748;52.240;6.002;2023-05-10T04:23:49;89.50;;;26.20;;
25950;SDS011;13748;52.240;6.002;2023-05-10T04:26:16;100.10;;;25.63;;
25950;SDS011;13748;52.240;6.002;2023-05-10T04:28:42;89.00;;;25.40;;
25950;SDS011;13748;52.240;6.002;2023-05-10T04:31:09;86.87;;;25.50;;
25950;SDS011;13748;52.240;6.002;2023-05-10T04:33:36;79.47;;;23.97;;
25950;SDS011;13748;52.240;6.002;2023-05-10T04:36:03;93.87;;;24.40;;
25950;SDS011;13748;52.240;6.002;2023-05-10T04:38:30;93.30;;;26.73;;
25950;SDS011;13748;52.240;6.002;2023-05-10T04:41:04;87.00;;;25.93;;
25950;SDS011;13748;52.240;6.002;2023-05-10T04:43:32;86.47;;;25.77;;
25950;SDS011;13748;52.240;6.002;2023-05-10T04:45:59;93.93;;;25.47;;
25950;SDS011;13748;52.240;6.002;2023-05-10T04:48:27;91.37;;;26.77;;
25950;SDS011;13748;52.240;6.002;2023-05-10T04:50:54;99.90;;;28.23;;
25950;SDS011;13748;52.240;6.002;2023-05-10T04:53:21;97.03;;;26.30;;
25950;SDS011;13748;52.240;6.002;2023-05-10T04:55:47;94.87;;;24.30;;
25950;SDS011;13748;52.240;6.002;2023-05-10T04:58:15;91.23;;;26.93;;
25950;SDS011;13748;52.240;6.002;2023-05-10T05:00:41;102.40;;;25.73;;
25950;SDS011;13748;52.240;6.002;2023-05-10T05:03:08;94.90;;;26.30;;
25950;SDS011;13748;52.240;6.002;2023-05-10T05:05:35;102.60;;;25.90;;
25950;SDS011;13748;52.240;6.002;2023-05-10T05:08:02;89.50;;;23.57;;
25950;SDS011;13748;52.240;6.002;2023-05-10T05:10:30;98.37;;;25.13;;
25950;SDS011;13748;52.240;6.002;2023-05-10T05:12:57;112.33;;;27.30;;
25950;SDS011;13748;52.240;6.002;2023-05-10T05:15:24;97.87;;;26.40;;
25950;SDS011;13748;52.240;6.002;2023-05-10T05:17:50;100.40;;;25.57;;
25950;SDS011;13748;52.240;6.002;2023-05-10T05:20:18;104.23;;;25.23;;
25950;SDS011;13748;52.240;6.002;2023-05-10T05:22:45;103.80;;;24.73;;
25950;SDS011;13748;52.240;6.002;2023-05-10T05:25:12;97.43;;;24.73;;
25950;SDS011;13748;52.240;6.002;2023-05-10T05:27:40;108.03;;;24.87;;
25950;SDS011;13748;52.240;6.002;2023-05-10T05:30:06;105.00;;;24.70;;
25950;SDS011;13748;52.240;6.002;2023-05-10T05:32:34;107.27;;;24.47;;
25950;SDS011;13748;52.240;6.002;2023-05-10T05:35:00;109.20;;;25.47;;
25950;SDS011;13748;52.240;6.002;2023-05-10T05:37:27;103.20;;;24.03;;
25950;SDS011;13748;52.240;6.002;2023-05-10T05:39:54;102.33;;;24.50;;
25950;SDS011;13748;52.240;6.002;2023-05-10T05:42:21;108.67;;;23.70;;
25950;SDS011;13748;52.240;6.002;2023-05-10T05:44:47;108.83;;;25.33;;
25950;SDS011;13748;52.240;6.002;2023-05-10T05:47:14;103.97;;;24.77;;
25950;SDS011;13748;52.240;6.002;2023-05-10T05:49:41;93.40;;;22.47;;
25950;SDS011;13748;52.240;6.002;2023-05-10T05:52:08;107.00;;;23.60;;
25950;SDS011;13748;52.240;6.002;2023-05-10T05:54:35;111.60;;;25.63;;
25950;SDS011;13748;52.240;6.002;2023-05-10T05:57:01;112.00;;;24.47;;
25950;SDS011;13748;52.240;6.002;2023-05-10T05:59:28;112.13;;;25.80;;
25950;SDS011;13748;52.240;6.002;2023-05-10T06:01:55;113.67;;;24.30;;
25950;SDS011;13748;52.240;6.002;2023-05-10T06:04:22;115.77;;;27.67;;
25950;SDS011;13748;52.240;6.002;2023-05-10T06:06:49;115.47;;;25.27;;
25950;SDS011;13748;52.240;6.002;2023-05-10T06:09:15;108.03;;;24.07;;
25950;SDS011;13748;52.240;6.002;2023-05-10T06:11:42;111.87;;;25.33;;
25950;SDS011;13748;52.240;6.002;2023-05-10T06:14:09;107.17;;;23.27;;
25950;SDS011;13748;52.240;6.002;2023-05-10T06:16:36;100.73;;;23.70;;
25950;SDS011;13748;52.240;6.002;2023-05-10T06:19:03;100.70;;;23.53;;
25950;SDS011;13748;52.240;6.002;2023-05-10T06:21:30;99.90;;;24.20;;
25950;SDS011;13748;52.240;6.002;2023-05-10T06:23:57;95.87;;;23.83;;
25950;SDS011;13748;52.240;6.002;2023-05-10T06:26:23;114.27;;;24.77;;
25950;SDS011;13748;52.240;6.002;2023-05-10T06:28:51;114.17;;;25.17;;
25950;SDS011;13748;52.240;6.002;2023-05-10T06:31:17;107.70;;;26.13;;
25950;SDS011;13748;52.240;6.002;2023-05-10T06:33:44;104.13;;;24.60;;
25950;SDS011;13748;52.240;6.002;2023-05-10T06:36:11;109.53;;;23.07;;
25950;SDS011;13748;52.240;6.002;2023-05-10T06:38:37;104.97;;;25.63;;
25950;SDS011;13748;52.240;6.002;2023-05-10T06:41:04;112.53;;;25.00;;
25950;SDS011;13748;52.240;6.002;2023-05-10T06:43:31;114.70;;;24.40;;
25950;SDS011;13748;52.240;6.002;2023-05-10T06:45:58;101.87;;;24.03;;
25950;SDS011;13748;52.240;6.002;2023-05-10T06:48:25;88.10;;;21.27;;
25950;SDS011;13748;52.240;6.002;2023-05-10T06:50:51;74.73;;;20.27;;
25950;SDS011;13748;52.240;6.002;2023-05-10T06:53:18;81.80;;;22.53;;
25950;SDS011;13748;52.240;6.002;2023-05-10T06:55:45;83.13;;;22.43;;
25950;SDS011;13748;52.240;6.002;2023-05-10T06:58:12;92.97;;;23.77;;
25950;SDS011;13748;52.240;6.002;2023-05-10T07:00:39;89.87;;;22.93;;
25950;SDS011;13748;52.240;6.002;2023-05-10T07:03:06;86.93;;;24.90;;
25950;SDS011;13748;52.240;6.002;2023-05-10T07:05:33;85.93;;;23.67;;
25950;SDS011;13748;52.240;6.002;2023-05-10T07:08:00;80.90;;;23.07;;
25950;SDS011;13748;52.240;6.002;2023-05-10T07:10:27;90.73;;;24.57;;
25950;SDS011;13748;52.240;6.002;2023-05-10T07:12:54;70.90;;;22.17;;
25950;SDS011;13748;52.240;6.002;2023-05-10T07:15:21;78.33;;;24.13;;
25950;SDS011;13748;52.240;6.002;2023-05-10T07:17:48;79.10;;;23.07;;
25950;SDS011;13748;52.240;6.002;2023-05-10T07:20:15;78.47;;;23.40;;
25950;SDS011;13748;52.240;6.002;2023-05-10T07:22:42;72.13;;;21.57;;
25950;SDS011;13748;52.240;6.002;2023-05-10T07:25:09;79.57;;;22.37;;
25950;SDS011;13748;52.240;6.002;2023-05-10T07:27:36;63.70;;;21.53;;
25950;SDS011;13748;52.240;6.002;2023-05-10T07:30:03;72.73;;;22.03;;
25950;SDS011;13748;52.240;6.002;2023-05-10T07:32:30;63.23;;;21.80;;
25950;SDS011;13748;52.240;6.002;2023-05-10T07:34:57;67.10;;;22.83;;
25950;SDS011;13748;52.240;6.002;2023-05-10T07:37:24;67.50;;;21.10;;
25950;SDS011;13748;52.240;6.002;2023-05-10T07:39:51;65.63;;;21.07;;
25950;SDS011;13748;52.240;6.002;2023-05-10T07:42:18;64.03;;;20.73;;
25950;SDS011;13748;52.240;6.002;2023-05-10T07:44:44;49.93;;;18.17;;
25950;SDS011;13748;52.240;6.002;2023-05-10T07:47:11;60.03;;;20.03;;
25950;SDS011;13748;52.240;6.002;2023-05-10T07:49:38;57.07;;;19.77;;
25950;SDS011;13748;52.240;6.002;2023-05-10T07:52:04;51.90;;;19.23;;
25950;SDS011;13748;52.240;6.002;2023-05-10T07:54:31;49.45;;;18.85;;
25950;SDS011;13748;52.240;6.002;2023-05-10T07:56:59;47.03;;;17.70;;
25950;SDS011;13748;52.240;6.002;2023-05-10T07:59:26;52.33;;;17.88;;
25950;SDS011;13748;52.240;6.002;2023-05-10T08:01:53;42.38;;;15.93;;
25950;SDS011;13748;52.240;6.002;2023-05-10T08:04:20;40.80;;;16.30;;
25950;SDS011;13748;52.240;6.002;2023-05-10T08:06:46;41.88;;;17.02;;
25950;SDS011;13748;52.240;6.002;2023-05-10T08:09:13;37.58;;;14.68;;
25950;SDS011;13748;52.240;6.002;2023-05-10T08:11:40;36.17;;;15.10;;
25950;SDS011;13748;52.240;6.002;2023-05-10T08:14:07;34.50;;;14.48;;
25950;SDS011;13748;52.240;6.002;2023-05-10T08:16:33;33.42;;;14.88;;
25950;SDS011;13748;52.240;6.002;2023-05-10T08:19:00;34.63;;;14.93;;
25950;SDS011;13748;52.240;6.002;2023-05-10T08:21:27;29.08;;;13.55;;
25950;SDS011;13748;52.240;6.002;2023-05-10T08:23:54;33.90;;;14.55;;
25950;SDS011;13748;52.240;6.002;2023-05-10T08:26:21;31.25;;;13.52;;
25950;SDS011;13748;52.240;6.002;2023-05-10T08:28:48;30.77;;;13.73;;
25950;SDS011;13748;52.240;6.002;2023-05-10T08:31:14;33.00;;;12.35;;
25950;SDS011;13748;52.240;6.002;2023-05-10T08:33:42;22.98;;;11.52;;
25950;SDS011;13748;52.240;6.002;2023-05-10T08:36:10;25.55;;;12.20;;
25950;SDS011;13748;52.240;6.002;2023-05-10T08:38:37;24.83;;;11.90;;
25950;SDS011;13748;52.240;6.002;2023-05-10T08:41:04;24.77;;;11.85;;
25950;SDS011;13748;52.240;6.002;2023-05-10T08:43:32;24.95;;;10.65;;
25950;SDS011;13748;52.240;6.002;2023-05-10T08:46:02;24.25;;;10.35;;
25950;SDS011;13748;52.240;6.002;2023-05-10T08:48:31;21.80;;;10.65;;
25950;SDS011;13748;52.240;6.002;2023-05-10T08:51:00;18.25;;;9.82;;
25950;SDS011;13748;52.240;6.002;2023-05-10T08:53:29;20.67;;;10.05;;
25950;SDS011;13748;52.240;6.002;2023-05-10T08:55:59;20.42;;;9.27;;
25950;SDS011;13748;52.240;6.002;2023-05-10T08:58:27;24.52;;;10.02;;
25950;SDS011;13748;52.240;6.002;2023-05-10T09:00:53;19.23;;;9.50;;
25950;SDS011;13748;52.240;6.002;2023-05-10T09:03:22;19.55;;;9.80;;
25950;SDS011;13748;52.240;6.002;2023-05-10T09:05:48;24.33;;;9.65;;
25950;SDS011;13748;52.240;6.002;2023-05-10T09:08:15;21.80;;;10.10;;
25950;SDS011;13748;52.240;6.002;2023-05-10T09:10:44;23.33;;;10.52;;
25950;SDS011;13748;52.240;6.002;2023-05-10T09:13:13;21.48;;;9.98;;
25950;SDS011;13748;52.240;6.002;2023-05-10T09:15:41;22.95;;;9.40;;
25950;SDS011;13748;52.240;6.002;2023-05-10T09:18:09;22.60;;;8.98;;
25950;SDS011;13748;52.240;6.002;2023-05-10T09:20:36;23.27;;;9.70;;
25950;SDS011;13748;52.240;6.002;2023-05-10T09:23:03;17.30;;;9.10;;
25950;SDS011;13748;52.240;6.002;2023-05-10T09:25:29;21.08;;;9.45;;
25950;SDS011;13748;52.240;6.002;2023-05-10T09:27:56;21.55;;;9.10;;
25950;SDS011;13748;52.240;6.002;2023-05-10T09:30:24;17.73;;;8.80;;
25950;SDS011;13748;52.240;6.002;2023-05-10T09:32:52;21.23;;;9.35;;
25950;SDS011;13748;52.240;6.002;2023-05-10T09:35:21;18.73;;;8.57;;
25950;SDS011;13748;52.240;6.002;2023-05-10T09:37:53;18.05;;;9.38;;
25950;SDS011;13748;52.240;6.002;2023-05-10T09:40:21;20.33;;;9.55;;
25950;SDS011;13748;52.240;6.002;2023-05-10T09:43:02;17.48;;;8.68;;
25950;SDS011;13748;52.240;6.002;2023-05-10T09:45:33;21.08;;;9.48;;
25950;SDS011;13748;52.240;6.002;2023-05-10T09:48:03;21.05;;;9.73;;
25950;SDS011;13748;52.240;6.002;2023-05-10T09:50:31;17.60;;;9.07;;
25950;SDS011;13748;52.240;6.002;2023-05-10T09:52:58;21.55;;;9.77;;
25950;SDS011;13748;52.240;6.002;2023-05-10T09:55:40;19.98;;;10.00;;
25950;SDS011;13748;52.240;6.002;2023-05-10T09:58:08;17.25;;;8.82;;
25950;SDS011;13748;52.240;6.002;2023-05-10T10:00:41;21.98;;;9.05;;
25950;SDS011;13748;52.240;6.002;2023-05-10T10:03:16;22.13;;;9.88;;
25950;SDS011;13748;52.240;6.002;2023-05-10T10:05:45;19.23;;;9.52;;
25950;SDS011;13748;52.240;6.002;2023-05-10T10:08:13;16.52;;;8.30;;
25950;SDS011;13748;52.240;6.002;2023-05-10T10:10:41;19.27;;;9.57;;
25950;SDS011;13748;52.240;6.002;2023-05-10T10:13:11;13.70;;;6.95;;
25950;SDS011;13748;52.240;6.002;2023-05-10T10:15:38;18.08;;;7.70;;
25950;SDS011;13748;52.240;6.002;2023-05-10T10:18:05;15.00;;;8.13;;
25950;SDS011;13748;52.240;6.002;2023-05-10T10:20:35;12.35;;;6.75;;
25950;SDS011;13748;52.240;6.002;2023-05-10T10:23:03;15.90;;;7.38;;
25950;SDS011;13748;52.240;6.002;2023-05-10T10:25:30;10.82;;;6.32;;
25950;SDS011;13748;52.240;6.002;2023-05-10T10:28:04;11.25;;;5.85;;
25950;SDS011;13748;52.240;6.002;2023-05-10T10:30:52;12.40;;;5.43;;
25950;SDS011;13748;52.240;6.002;2023-05-10T10:36:02;9.20;;;4.78;;
25950;SDS011;13748;52.240;6.002;2023-05-10T10:39:07;9.88;;;5.07;;
25950;SDS011;13748;52.240;6.002;2023-05-10T10:41:28;11.38;;;4.93;;
25950;SDS011;13748;52.240;6.002;2023-05-10T10:55:09;9.73;;;5.60;;
25950;SDS011;13748;52.240;6.002;2023-05-10T11:00:20;10.30;;;5.10;;
25950;SDS011;13748;52.240;6.002;2023-05-10T11:02:53;10.60;;;5.50;;
25950;SDS011;13748;52.240;6.002;2023-05-10T11:10:48;8.93;;;5.03;;
25950;SDS011;13748;52.240;6.002;2023-05-10T11:13:30;8.00;;;4.22;;
25950;SDS011;13748;52.240;6.002;2023-05-10T11:15:59;6.70;;;4.22;;
25950;SDS011;13748;52.240;6.002;2023-05-10T11:18:38;6.80;;;4.00;;
25950;SDS011;13748;52.240;6.002;2023-05-10T11:21:07;6.18;;;3.60;;
25950;SDS011;13748;52.240;6.002;2023-05-10T11:26:07;7.95;;;3.88;;
25950;SDS011;13748;52.240;6.002;2023-05-10T11:28:43;6.18;;;3.58;;
25950;SDS011;13748;52.240;6.002;2023-05-10T11:31:14;5.07;;;3.22;;
25950;SDS011;13748;52.240;6.002;2023-05-10T11:33:42;7.68;;;3.45;;
25950;SDS011;13748;52.240;6.002;2023-05-10T11:36:43;5.60;;;3.00;;
25950;SDS011;13748;52.240;6.002;2023-05-10T11:39:03;4.57;;;2.85;;
25950;SDS011;13748;52.240;6.002;2023-05-10T11:41:31;6.05;;;3.70;;
25950;SDS011;13748;52.240;6.002;2023-05-10T11:43:58;6.47;;;3.35;;
25950;SDS011;13748;52.240;6.002;2023-05-10T11:46:25;4.70;;;3.33;;
25950;SDS011;13748;52.240;6.002;2023-05-10T11:48:56;5.63;;;3.45;;
25950;SDS011;13748;52.240;6.002;2023-05-10T11:51:27;4.60;;;3.20;;
25950;SDS011;13748;52.240;6.002;2023-05-10T11:53:55;4.45;;;3.20;;
25950;SDS011;13748;52.240;6.002;2023-05-10T11:56:23;5.38;;;3.08;;
25950;SDS011;13748;52.240;6.002;2023-05-10T11:58:54;5.70;;;3.13;;
25950;SDS011;13748;52.240;6.002;2023-05-10T12:01:23;6.13;;;3.80;;
25950;SDS011;13748;52.240;6.002;2023-05-10T12:03:51;5.85;;;2.90;;
25950;SDS011;13748;52.240;6.002;2023-05-10T12:06:20;7.50;;;3.42;;
25950;SDS011;13748;52.240;6.002;2023-05-10T12:08:48;4.45;;;3.22;;
25950;SDS011;13748;52.240;6.002;2023-05-10T12:11:18;6.60;;;3.40;;
25950;SDS011;13748;52.240;6.002;2023-05-10T12:13:47;6.55;;;2.60;;
25950;SDS011;13748;52.240;6.002;2023-05-10T12:18:50;6.18;;;3.00;;
25950;SDS011;13748;52.240;6.002;2023-05-10T12:21:21;4.25;;;3.03;;
25950;SDS011;13748;52.240;6.002;2023-05-10T12:23:52;6.63;;;3.22;;
25950;SDS011;13748;52.240;6.002;2023-05-10T12:26:23;4.72;;;2.85;;
25950;SDS011;13748;52.240;6.002;2023-05-10T12:28:54;6.55;;;3.20;;
25950;SDS011;13748;52.240;6.002;2023-05-10T12:31:56;6.07;;;2.97;;
25950;SDS011;13748;52.240;6.002;2023-05-10T12:34:32;7.15;;;3.33;;
25950;SDS011;13748;52.240;6.002;2023-05-10T12:37:00;5.45;;;3.22;;
25950;SDS011;13748;52.240;6.002;2023-05-10T12:39:43;7.07;;;3.80;;
25950;SDS011;13748;52.240;6.002;2023-05-10T12:42:10;5.50;;;3.90;;
25950;SDS011;13748;52.240;6.002;2023-05-10T12:44:38;6.47;;;4.15;;
25950;SDS011;13748;52.240;6.002;2023-05-10T12:47:05;7.65;;;4.10;;
25950;SDS011;13748;52.240;6.002;2023-05-10T12:49:32;8.88;;;3.85;;
25950;SDS011;13748;52.240;6.002;2023-05-10T12:52:00;7.38;;;4.03;;
25950;SDS011;13748;52.240;6.002;2023-05-10T12:54:26;7.03;;;4.50;;
25950;SDS011;13748;52.240;6.002;2023-05-10T12:56:54;7.25;;;4.30;;
25950;SDS011;13748;52.240;6.002;2023-05-10T12:59:20;8.73;;;4.43;;
25950;SDS011;13748;52.240;6.002;2023-05-10T13:01:48;6.95;;;4.10;;
25950;SDS011;13748;52.240;6.002;2023-05-10T13:04:15;8.65;;;4.72;;
25950;SDS011;13748;52.240;6.002;2023-05-10T13:06:42;5.60;;;3.83;;
25950;SDS011;13748;52.240;6.002;2023-05-10T13:09:09;7.22;;;4.40;;
25950;SDS011;13748;52.240;6.002;2023-05-10T13:11:36;10.15;;;4.57;;
25950;SDS011;13748;52.240;6.002;2023-05-10T13:14:03;8.05;;;4.55;;
25950;SDS011;13748;52.240;6.002;2023-05-10T13:16:29;6.38;;;3.90;;
25950;SDS011;13748;52.240;6.002;2023-05-10T13:18:56;7.40;;;3.63;;
25950;SDS011;13748;52.240;6.002;2023-05-10T13:21:24;7.40;;;4.63;;
25950;SDS011;13748;52.240;6.002;2023-05-10T13:23:51;7.82;;;5.18;;
25950;SDS011;13748;52.240;6.002;2023-05-10T13:26:18;7.63;;;4.68;;
25950;SDS011;13748;52.240;6.002;2023-05-10T13:28:46;8.15;;;4.30;;
25950;SDS011;13748;52.240;6.002;2023-05-10T13:31:13;10.60;;;4.85;;
25950;SDS011;13748;52.240;6.002;2023-05-10T13:33:40;9.45;;;5.43;;
25950;SDS011;13748;52.240;6.002;2023-05-10T13:36:07;8.07;;;4.75;;
25950;SDS011;13748;52.240;6.002;2023-05-10T13:38:34;7.38;;;4.60;;
25950;SDS011;13748;52.240;6.002;2023-05-10T13:41:00;8.75;;;4.88;;
25950;SDS011;13748;52.240;6.002;2023-05-10T13:43:28;14.02;;;5.40;;
25950;SDS011;13748;52.240;6.002;2023-05-10T13:45:55;9.90;;;5.40;;
25950;SDS011;13748;52.240;6.002;2023-05-10T13:48:22;11.20;;;5.78;;
25950;SDS011;13748;52.240;6.002;2023-05-10T13:50:49;9.85;;;5.30;;
25950;SDS011;13748;52.240;6.002;2023-05-10T13:53:15;9.18;;;5.03;;
25950;SDS011;13748;52.240;6.002;2023-05-10T13:55:42;11.20;;;5.70;;
25950;SDS011;13748;52.240;6.002;2023-05-10T13:58:09;8.23;;;5.32;;
25950;SDS011;13748;52.240;6.002;2023-05-10T14:00:35;10.52;;;5.00;;
25950;SDS011;13748;52.240;6.002;2023-05-10T14:03:02;8.57;;;5.05;;
25950;SDS011;13748;52.240;6.002;2023-05-10T14:05:31;8.93;;;5.22;;
25950;SDS011;13748;52.240;6.002;2023-05-10T14:07:57;10.15;;;5.15;;
25950;SDS011;13748;52.240;6.002;2023-05-10T14:10:24;9.13;;;5.15;;
25950;SDS011;13748;52.240;6.002;2023-05-10T14:12:51;9.48;;;5.30;;
25950;SDS011;13748;52.240;6.002;2023-05-10T14:15:18;9.23;;;5.05;;
25950;SDS011;13748;52.240;6.002;2023-05-10T14:17:45;8.20;;;5.18;;
25950;SDS011;13748;52.240;6.002;2023-05-10T14:20:12;8.75;;;5.70;;
25950;SDS011;13748;52.240;6.002;2023-05-10T14:22:39;8.60;;;5.47;;
25950;SDS011;13748;52.240;6.002;2023-05-10T14:25:06;8.00;;;5.18;;
25950;SDS011;13748;52.240;6.002;2023-05-10T14:27:33;7.45;;;5.05;;
25950;SDS011;13748;52.240;6.002;2023-05-10T14:30:00;10.23;;;5.10;;
25950;SDS011;13748;52.240;6.002;2023-05-10T14:32:27;8.88;;;5.63;;
25950;SDS011;13748;52.240;6.002;2023-05-10T14:34:54;8.32;;;5.00;;
25950;SDS011;13748;52.240;6.002;2023-05-10T14:37:21;7.45;;;5.03;;
25950;SDS011;13748;52.240;6.002;2023-05-10T14:39:48;9.98;;;5.07;;
25950;SDS011;13748;52.240;6.002;2023-05-10T14:42:15;7.78;;;4.85;;
25950;SDS011;13748;52.240;6.002;2023-05-10T14:44:42;8.70;;;5.00;;
25950;SDS011;13748;52.240;6.002;2023-05-10T14:47:08;10.70;;;5.07;;
25950;SDS011;13748;52.240;6.002;2023-05-10T14:49:37;8.27;;;5.90;;
25950;SDS011;13748;52.240;6.002;2023-05-10T14:52:04;9.32;;;5.63;;
25950;SDS011;13748;52.240;6.002;2023-05-10T14:54:31;7.90;;;4.60;;
25950;SDS011;13748;52.240;6.002;2023-05-10T14:56:59;7.65;;;5.30;;
25950;SDS011;13748;52.240;6.002;2023-05-10T14:59:26;9.25;;;5.07;;
25950;SDS011;13748;52.240;6.002;2023-05-10T15:01:53;9.35;;;4.97;;
25950;SDS011;13748;52.240;6.002;2023-05-10T15:04:21;7.10;;;4.90;;
25950;SDS011;13748;52.240;6.002;2023-05-10T15:06:48;8.75;;;5.47;;
25950;SDS011;13748;52.240;6.002;2023-05-10T15:09:14;10.68;;;5.75;;
25950;SDS011;13748;52.240;6.002;2023-05-10T15:11:42;9.90;;;5.43;;
25950;SDS011;13748;52.240;6.002;2023-05-10T15:14:10;10.85;;;5.80;;
25950;SDS011;13748;52.240;6.002;2023-05-10T15:16:37;8.27;;;5.47;;
25950;SDS011;13748;52.240;6.002;2023-05-10T15:19:04;8.07;;;5.38;;
25950;SDS011;13748;52.240;6.002;2023-05-10T15:21:31;8.23;;;5.38;;